MSC Bremen — A8LK7 — position and weather

sailwx.info

Track history (hours):
 
Tides and Currents Weather Stations Pressure Air Temp Water Temp Dewpoint Dewpoint Depression Visibility Wind Speed Wind Dir Waves Ship Positions

MSC Bremen

Last reported at 2017-Feb-21 11:32 UTC. Time now 2017-Feb-21 12:14 UTC.
Position N 40°41' W 074°09'.

Length 294 m; ; draft 13.7 m.

Type: Ship (hazmat cat D). MMSI: 636091270.

Date/timePositionNaut miles runAvg speedWind from/ knotsBaromVisibWave heightAir tempDewpointWater temp
2017-Feb-21 11:32N 40°41' W 074°09'0 0.0
2017-Feb-21 10:33N 40°41' W 074°09'0 0.0
2017-Feb-21 09:33N 40°41' W 074°09'0 0.0
2017-Feb-21 08:33N 40°41' W 074°09'0 0.0
2017-Feb-21 07:33N 40°41' W 074°09'0 0.0
2017-Feb-21 06:32N 40°41' W 074°09'0 0.0
2017-Feb-21 05:33N 40°41' W 074°09'0 0.0
2017-Feb-21 04:33N 40°41' W 074°09'0 0.0
2017-Feb-21 03:33N 40°41' W 074°09'2 2.5
2017-Feb-21 02:33N 40°39' W 074°09'8 7.7
2017-Feb-21 01:33N 40°33' W 074°02'1111.2
2017-Feb-21 00:33N 40°28' W 073°49'6 6.2
2017-Feb-20 23:33N 40°28' W 073°41'0 0.4
2017-Feb-20 22:31N 40°28' W 073°40'0 0.0
2017-Feb-20 21:31N 40°28' W 073°40'0 0.1
2017-Feb-20 20:25N 40°28' W 073°40'0 0.1
2017-Feb-20 19:22N 40°28' W 073°40'0 0.1
2017-Feb-20 18:31N 40°28' W 073°40'0 0.1
2017-Feb-20 17:31N 40°28' W 073°40'0 0.0
2017-Feb-20 16:28N 40°28' W 073°40'0 0.0
2017-Feb-20 15:31N 40°28' W 073°40'0 0.0
2017-Feb-20 14:33N 40°28' W 073°40'0 0.0
2017-Feb-20 13:33N 40°28' W 073°40'3 3.2
2017-Feb-20 12:34N 40°26' W 073°43'9 8.9
2017-Feb-20 11:34N 40°17' W 073°46'3611.7
2017-Feb-20 08:31N 39°42' W 073°40'19915.3
2017-Feb-19 19:30N 36°51' W 075°51'9 9.6
2017-Feb-19 18:33N 36°57' W 075°59'1716.9
2017-Feb-19 17:33N 37°13' W 076°09'4019.0
2017-Feb-19 15:26N 37°53' W 076°10'1920.5
2017-Feb-19 14:30N 38°12' W 076°14'3819.7
2017-Feb-19 12:33N 38°49' W 076°25'1817.6
2017-Feb-19 11:33N 39°07' W 076°24'1211.6
2017-Feb-19 10:34N 39°15' W 076°33'1 0.8
2017-Feb-19 09:32N 39°15' W 076°33'0 0.0
2017-Feb-19 08:32N 39°15' W 076°33'0 0.0
2017-Feb-19 07:32N 39°15' W 076°33'0 0.0
2017-Feb-19 06:32N 39°15' W 076°33'0 0.0
2017-Feb-19 05:32N 39°15' W 076°33'0 0.0
2017-Feb-19 04:32N 39°15' W 076°33'0 0.0
2017-Feb-19 03:32N 39°15' W 076°33'0 0.0
2017-Feb-19 02:32N 39°15' W 076°33'0 0.0
2017-Feb-19 01:32N 39°15' W 076°33'0 0.0
2017-Feb-19 00:32N 39°15' W 076°33'0 0.0
2017-Feb-18 23:32N 39°15' W 076°33'0 0.0
2017-Feb-18 22:32N 39°15' W 076°33'0 0.0
2017-Feb-18 21:32N 39°15' W 076°33'0 0.0
2017-Feb-18 20:32N 39°15' W 076°33'0 0.0
2017-Feb-18 19:32N 39°15' W 076°33'0 0.0
2017-Feb-18 18:32N 39°15' W 076°33'0 0.0
2017-Feb-18 17:32N 39°15' W 076°33'0 0.0
2017-Feb-18 16:32N 39°15' W 076°33'0 0.0
2017-Feb-18 15:32N 39°15' W 076°33'0 0.0
2017-Feb-18 14:33N 39°15' W 076°33'6 5.6
2017-Feb-18 13:33N 39°11' W 076°28'1211.8
2017-Feb-18 12:34N 38°60' W 076°23'1717.4
2017-Feb-18 11:33N 38°43' W 076°26'2019.8
2017-Feb-18 10:33N 38°23' W 076°20'2921.4
2017-Feb-18 09:12N 37°56' W 076°09'5219.3
2017-Feb-18 06:29N 37°03' W 076°05'1212.7
2017-Feb-18 05:33N 36°55' W 075°54'7 7.4
2017-Feb-18 04:33N 36°50' W 075°47'18917.2
2017-Feb-17 17:33N 39°37' W 073°53'4715.0
2017-Feb-17 14:28N 40°23' W 073°49'8 8.6
2017-Feb-17 13:33N 40°29' W 073°55'1212.4
2017-Feb-17 12:33N 40°39' W 074°05'3 3.3
2017-Feb-17 11:33N 40°41' W 074°09'1 0.5
2017-Feb-17 10:31N 40°41' W 074°09'0 0.0
2017-Feb-17 09:28N 40°41' W 074°09'0 0.0
2017-Feb-17 08:31N 40°41' W 074°09'0 0.0
2017-Feb-17 07:31N 40°41' W 074°09'0 0.0
2017-Feb-17 06:31N 40°41' W 074°09'0 0.0
2017-Feb-17 05:31N 40°41' W 074°09'0 0.0
2017-Feb-17 04:32N 40°41' W 074°09'0 0.0
2017-Feb-17 03:32N 40°41' W 074°09'0 0.0
2017-Feb-17 02:32N 40°41' W 074°09'0 0.0
2017-Feb-17 01:32N 40°41' W 074°09'0 0.0
2017-Feb-17 00:32N 40°41' W 074°09'0 0.0
2017-Feb-16 22:32N 40°41' W 074°09'0 0.0
2017-Feb-16 21:32N 40°41' W 074°09'2 1.9
2017-Feb-16 20:33N 40°39' W 074°09'4 4.4
2017-Feb-16 19:33N 40°38' W 074°03'1110.9
2017-Feb-16 18:34N 40°29' W 073°55'8 8.0
2017-Feb-16 17:33N 40°27' W 073°45'9 8.9
2017-Feb-16 16:30N 40°28' W 073°33'  
Track history (hours):
 
Tides and Currents Weather Stations Pressure Air Temp Water Temp Dewpoint Dewpoint Depression Visibility Wind Speed Wind Dir Waves Ship Positions

MSC Bremen

Last reported at 2017-Feb-21 11:32 UTC. Time now 2017-Feb-21 12:14 UTC.
Position N 40°41' W 074°09'.

Length 294 m; ; draft 13.7 m.

Type: Ship (hazmat cat D). MMSI: 636091270.

Date/timePositionNaut miles runAvg speedWind from/ knotsBaromVisibWave heightAir tempDewpointWater temp
2017-Feb-21 11:32N 40°41' W 074°09'0 0.0
2017-Feb-21 10:33N 40°41' W 074°09'0 0.0
2017-Feb-21 09:33N 40°41' W 074°09'0 0.0
2017-Feb-21 08:33N 40°41' W 074°09'0 0.0
2017-Feb-21 07:33N 40°41' W 074°09'0 0.0
2017-Feb-21 06:32N 40°41' W 074°09'0 0.0
2017-Feb-21 05:33N 40°41' W 074°09'0 0.0
2017-Feb-21 04:33N 40°41' W 074°09'0 0.0
2017-Feb-21 03:33N 40°41' W 074°09'2 2.5
2017-Feb-21 02:33N 40°39' W 074°09'8 7.7
2017-Feb-21 01:33N 40°33' W 074°02'1111.2
2017-Feb-21 00:33N 40°28' W 073°49'6 6.2
2017-Feb-20 23:33N 40°28' W 073°41'0 0.4
2017-Feb-20 22:31N 40°28' W 073°40'0 0.0
2017-Feb-20 21:31N 40°28' W 073°40'0 0.1
2017-Feb-20 20:25N 40°28' W 073°40'0 0.1
2017-Feb-20 19:22N 40°28' W 073°40'0 0.1
2017-Feb-20 18:31N 40°28' W 073°40'0 0.1
2017-Feb-20 17:31N 40°28' W 073°40'0 0.0
2017-Feb-20 16:28N 40°28' W 073°40'0 0.0
2017-Feb-20 15:31N 40°28' W 073°40'0 0.0
2017-Feb-20 14:33N 40°28' W 073°40'0 0.0
2017-Feb-20 13:33N 40°28' W 073°40'3 3.2
2017-Feb-20 12:34N 40°26' W 073°43'9 8.9
2017-Feb-20 11:34N 40°17' W 073°46'3611.7
2017-Feb-20 08:31N 39°42' W 073°40'19915.3
2017-Feb-19 19:30N 36°51' W 075°51'9 9.6
2017-Feb-19 18:33N 36°57' W 075°59'1716.9
2017-Feb-19 17:33N 37°13' W 076°09'4019.0
2017-Feb-19 15:26N 37°53' W 076°10'1920.5
2017-Feb-19 14:30N 38°12' W 076°14'3819.7
2017-Feb-19 12:33N 38°49' W 076°25'1817.6
2017-Feb-19 11:33N 39°07' W 076°24'1211.6
2017-Feb-19 10:34N 39°15' W 076°33'1 0.8
2017-Feb-19 09:32N 39°15' W 076°33'0 0.0
2017-Feb-19 08:32N 39°15' W 076°33'0 0.0
2017-Feb-19 07:32N 39°15' W 076°33'0 0.0
2017-Feb-19 06:32N 39°15' W 076°33'0 0.0
2017-Feb-19 05:32N 39°15' W 076°33'0 0.0
2017-Feb-19 04:32N 39°15' W 076°33'0 0.0
2017-Feb-19 03:32N 39°15' W 076°33'0 0.0
2017-Feb-19 02:32N 39°15' W 076°33'0 0.0
2017-Feb-19 01:32N 39°15' W 076°33'0 0.0
2017-Feb-19 00:32N 39°15' W 076°33'0 0.0
2017-Feb-18 23:32N 39°15' W 076°33'0 0.0
2017-Feb-18 22:32N 39°15' W 076°33'0 0.0
2017-Feb-18 21:32N 39°15' W 076°33'0 0.0
2017-Feb-18 20:32N 39°15' W 076°33'0 0.0
2017-Feb-18 19:32N 39°15' W 076°33'0 0.0
2017-Feb-18 18:32N 39°15' W 076°33'0 0.0
2017-Feb-18 17:32N 39°15' W 076°33'0 0.0
2017-Feb-18 16:32N 39°15' W 076°33'0 0.0
2017-Feb-18 15:32N 39°15' W 076°33'0 0.0
2017-Feb-18 14:33N 39°15' W 076°33'6 5.6
2017-Feb-18 13:33N 39°11' W 076°28'1211.8
2017-Feb-18 12:34N 38°60' W 076°23'1717.4
2017-Feb-18 11:33N 38°43' W 076°26'2019.8
2017-Feb-18 10:33N 38°23' W 076°20'2921.4
2017-Feb-18 09:12N 37°56' W 076°09'5219.3
2017-Feb-18 06:29N 37°03' W 076°05'1212.7
2017-Feb-18 05:33N 36°55' W 075°54'7 7.4
2017-Feb-18 04:33N 36°50' W 075°47'18917.2
2017-Feb-17 17:33N 39°37' W 073°53'4715.0
2017-Feb-17 14:28N 40°23' W 073°49'8 8.6
2017-Feb-17 13:33N 40°29' W 073°55'1212.4
2017-Feb-17 12:33N 40°39' W 074°05'3 3.3
2017-Feb-17 11:33N 40°41' W 074°09'1 0.5
2017-Feb-17 10:31N 40°41' W 074°09'0 0.0
2017-Feb-17 09:28N 40°41' W 074°09'0 0.0
2017-Feb-17 08:31N 40°41' W 074°09'0 0.0
2017-Feb-17 07:31N 40°41' W 074°09'0 0.0
2017-Feb-17 06:31N 40°41' W 074°09'0 0.0
2017-Feb-17 05:31N 40°41' W 074°09'0 0.0
2017-Feb-17 04:32N 40°41' W 074°09'0 0.0
2017-Feb-17 03:32N 40°41' W 074°09'0 0.0
2017-Feb-17 02:32N 40°41' W 074°09'0 0.0
2017-Feb-17 01:32N 40°41' W 074°09'0 0.0
2017-Feb-17 00:32N 40°41' W 074°09'0 0.0
2017-Feb-16 22:32N 40°41' W 074°09'0 0.0
2017-Feb-16 21:32N 40°41' W 074°09'2 1.9
2017-Feb-16 20:33N 40°39' W 074°09'4 4.4
2017-Feb-16 19:33N 40°38' W 074°03'1110.9
2017-Feb-16 18:34N 40°29' W 073°55'8 8.0
2017-Feb-16 17:33N 40°27' W 073°45'9 8.9
2017-Feb-16 16:30N 40°28' W 073°33'  

Dump ship's entire track history